createdAt,value
2023-01-23T00:00:16.376Z,7.71
2023-01-23T00:02:14.554Z,7.69
2023-01-23T00:04:15.024Z,7.71
2023-01-23T00:06:15.806Z,7.68
2023-01-23T00:08:14.564Z,7.68
2023-01-23T00:10:13.270Z,7.66
2023-01-23T00:12:11.820Z,7.69
2023-01-23T00:14:12.235Z,7.68
2023-01-23T00:16:12.500Z,7.69
2023-01-23T00:18:10.887Z,7.77
2023-01-23T00:20:13.402Z,7.78
2023-01-23T00:22:14.169Z,7.78
2023-01-23T00:24:13.307Z,7.80
2023-01-23T00:26:16.835Z,7.85
2023-01-23T00:28:16.481Z,7.86
2023-01-23T00:30:18.549Z,7.83
2023-01-23T00:32:17.358Z,7.84
2023-01-23T00:34:16.437Z,7.84
2023-01-23T00:36:16.600Z,7.83
2023-01-23T00:38:14.889Z,7.83
2023-01-23T00:40:14.295Z,7.81
2023-01-23T00:42:12.942Z,7.79
2023-01-23T00:44:11.420Z,7.76
2023-01-23T00:46:11.481Z,7.75
2023-01-23T00:48:11.119Z,7.73
2023-01-23T00:50:11.074Z,7.68
2023-01-23T00:52:09.394Z,7.68
2023-01-23T00:54:07.859Z,7.67
2023-01-23T00:56:07.191Z,7.63
2023-01-23T00:58:05.492Z,7.64
2023-01-23T01:00:06.695Z,7.60
2023-01-23T01:02:06.459Z,7.57
2023-01-23T01:04:04.641Z,7.49
2023-01-23T01:06:03.843Z,7.47
2023-01-23T01:08:02.448Z,7.45
2023-01-23T01:10:00.892Z,7.45
2023-01-23T01:11:59.186Z,7.42
2023-01-23T01:13:57.988Z,7.45
2023-01-23T01:15:56.929Z,7.48
2023-01-23T01:17:56.741Z,7.49
2023-01-23T01:19:55.031Z,7.48
2023-01-23T01:21:53.190Z,7.53
2023-01-23T01:23:51.572Z,7.53
2023-01-23T01:25:49.993Z,7.50
2023-01-23T01:27:48.583Z,7.47
2023-01-23T01:29:46.845Z,7.48
2023-01-23T01:31:45.295Z,7.46
2023-01-23T01:33:45.727Z,7.46
2023-01-23T01:35:44.201Z,7.51
2023-01-23T01:37:43.260Z,7.54
2023-01-23T01:39:41.453Z,7.53
2023-01-23T01:41:39.966Z,7.53
2023-01-23T01:43:38.563Z,7.53
2023-01-23T01:46:06.698Z,7.50
2023-01-23T01:48:05.580Z,7.48
2023-01-23T01:50:07.737Z,7.48
2023-01-23T01:52:08.588Z,7.45
2023-01-23T01:54:13.323Z,7.48
2023-01-23T01:56:14.066Z,7.54
2023-01-23T01:58:14.126Z,7.59
2023-01-23T02:00:16.033Z,7.64
2023-01-23T02:02:20.650Z,7.67
2023-01-23T02:04:19.274Z,7.71
2023-01-23T02:06:20.191Z,7.78
2023-01-23T02:08:24.608Z,7.78
2023-01-23T02:10:23.690Z,7.77
2023-01-23T02:12:22.043Z,7.78
2023-01-23T02:14:21.393Z,7.81
2023-01-23T02:16:25.656Z,7.82
2023-01-23T02:18:24.273Z,7.81
2023-01-23T02:20:25.408Z,7.81
2023-01-23T02:22:34.340Z,7.82
2023-01-23T02:24:40.378Z,7.84
2023-01-23T02:26:44.191Z,7.81
2023-01-23T02:28:44.034Z,7.77
2023-01-23T02:30:47.089Z,7.77
2023-01-23T02:32:46.002Z,7.76
2023-01-23T02:34:44.468Z,7.73
2023-01-23T02:36:46.505Z,7.71
2023-01-23T02:38:54.371Z,7.66
2023-01-23T02:40:53.043Z,7.64
2023-01-23T02:42:55.650Z,7.59
2023-01-23T02:44:56.042Z,7.57
2023-01-23T02:46:54.943Z,7.56
2023-01-23T02:48:53.421Z,7.53
2023-01-23T02:50:51.728Z,7.49
2023-01-23T02:52:54.727Z,7.49
2023-01-23T02:54:53.008Z,7.48
2023-01-23T02:56:51.386Z,7.43
2023-01-23T02:59:11.295Z,7.43
2023-01-23T03:01:10.557Z,7.43
2023-01-23T03:03:10.990Z,7.39
2023-01-23T03:05:10.298Z,7.39
2023-01-23T03:07:08.633Z,7.38
2023-01-23T03:09:09.644Z,7.36
2023-01-23T03:11:07.902Z,7.36
2023-01-23T03:13:07.544Z,7.37
2023-01-23T03:15:09.627Z,7.35
2023-01-23T03:17:07.840Z,7.33
2023-01-23T03:19:09.482Z,7.33
2023-01-23T03:21:08.604Z,7.35
2023-01-23T03:23:06.864Z,7.35
2023-01-23T03:25:05.913Z,7.34
2023-01-23T03:27:04.388Z,7.35
2023-01-23T03:29:31.050Z,7.35
2023-01-23T03:31:30.707Z,7.35
2023-01-23T03:33:30.474Z,7.33
2023-01-23T03:35:28.681Z,7.36
2023-01-23T03:37:27.118Z,7.36
2023-01-23T03:39:43.830Z,7.33
2023-01-23T03:41:45.811Z,7.34
2023-01-23T03:43:44.481Z,7.34
2023-01-23T03:45:43.335Z,7.33
2023-01-23T03:47:42.995Z,7.34
2023-01-23T03:49:42.266Z,7.33
2023-01-23T03:51:40.537Z,7.31
2023-01-23T03:53:38.764Z,7.32
2023-01-23T03:55:37.084Z,7.32
2023-01-23T03:57:35.462Z,7.30
2023-01-23T03:59:44.858Z,7.28
2023-01-23T04:01:44.005Z,7.26
2023-01-23T04:03:44.218Z,7.25
2023-01-23T04:05:42.299Z,7.25
2023-01-23T04:07:40.713Z,7.24
2023-01-23T04:09:39.780Z,7.21
2023-01-23T04:11:38.533Z,7.21
2023-01-23T04:13:38.159Z,7.17
2023-01-23T04:15:36.427Z,7.14
2023-01-23T04:17:43.279Z,7.17
2023-01-23T04:19:42.990Z,7.17
2023-01-23T04:21:41.247Z,7.15
2023-01-23T04:23:39.525Z,7.13
2023-01-23T04:25:37.673Z,7.11
2023-01-23T04:27:36.121Z,7.11
2023-01-23T04:29:35.093Z,7.12
2023-01-23T04:31:34.190Z,7.14
2023-01-23T04:33:32.997Z,7.13
2023-01-23T04:35:36.947Z,7.15
2023-01-23T04:37:35.156Z,7.16
2023-01-23T04:39:34.112Z,7.15
2023-01-23T04:41:33.344Z,7.16
2023-01-23T04:43:39.916Z,7.15
2023-01-23T04:45:41.670Z,7.16
2023-01-23T04:47:55.546Z,7.15
2023-01-23T04:49:54.187Z,7.16
2023-01-23T04:51:55.021Z,7.15
2023-01-23T04:53:56.525Z,7.17
2023-01-23T04:55:54.914Z,7.17
2023-01-23T04:57:53.084Z,7.15
2023-01-23T04:59:55.378Z,7.09
2023-01-23T05:01:54.038Z,7.09
2023-01-23T05:03:53.882Z,7.08
2023-01-23T05:05:52.555Z,7.05
2023-01-23T05:07:52.838Z,7.05
2023-01-23T05:09:50.966Z,7.04
2023-01-23T05:11:49.287Z,7.05
2023-01-23T05:13:47.924Z,7.05
2023-01-23T05:15:46.320Z,7.04
2023-01-23T05:17:44.719Z,7.03
2023-01-23T05:19:43.814Z,7.05
2023-01-23T05:21:42.875Z,7.03
2023-01-23T05:23:47.216Z,7.05
2023-01-23T05:25:47.072Z,7.01
2023-01-23T05:27:45.899Z,7.02
2023-01-23T05:29:44.502Z,7.07
2023-01-23T05:31:47.929Z,7.08
2023-01-23T05:34:04.850Z,7.09
2023-01-23T05:36:04.555Z,7.06
2023-01-23T05:38:02.710Z,7.07
2023-01-23T05:40:02.513Z,7.07
2023-01-23T05:42:20.797Z,7.03
2023-01-23T05:44:54.252Z,7.04
2023-01-23T05:47:02.714Z,7.05
2023-01-23T05:49:01.493Z,7.04
2023-01-23T05:50:59.842Z,7.06
2023-01-23T05:53:00.210Z,7.05
2023-01-23T05:54:58.580Z,7.06
2023-01-23T05:56:58.858Z,7.08
2023-01-23T05:59:15.681Z,7.09
2023-01-23T06:01:33.188Z,7.09
2023-01-23T06:04:00.873Z,7.09
2023-01-23T06:06:10.210Z,7.09
2023-01-23T06:08:08.937Z,7.11
2023-01-23T06:10:10.042Z,7.09
2023-01-23T06:12:10.294Z,7.12
2023-01-23T06:14:09.286Z,7.13
2023-01-23T06:16:10.779Z,7.14
2023-01-23T06:18:10.045Z,7.12
2023-01-23T06:20:13.264Z,7.12
2023-01-23T06:22:13.646Z,7.12
2023-01-23T06:24:29.332Z,7.12
2023-01-23T06:26:27.636Z,7.12
2023-01-23T06:28:29.038Z,7.13
2023-01-23T06:30:27.353Z,7.13
2023-01-23T06:32:27.011Z,7.12
2023-01-23T06:34:25.620Z,7.13
2023-01-23T06:36:28.897Z,7.13
2023-01-23T06:38:30.602Z,7.11
2023-01-23T06:40:29.648Z,7.05
2023-01-23T06:42:43.826Z,7.03
2023-01-23T06:44:43.801Z,6.97
2023-01-23T06:46:43.024Z,6.93
2023-01-23T06:48:41.486Z,6.93
2023-01-23T06:50:40.423Z,6.88
2023-01-23T06:52:38.999Z,6.83
2023-01-23T06:54:37.465Z,6.80
2023-01-23T06:56:37.733Z,6.83
2023-01-23T06:58:39.849Z,6.80
2023-01-23T07:00:48.491Z,6.74
2023-01-23T07:03:06.848Z,6.71
2023-01-23T07:05:09.956Z,6.70
2023-01-23T07:07:08.286Z,6.63
2023-01-23T07:09:06.653Z,6.64
2023-01-23T07:11:05.218Z,6.66
2023-01-23T07:13:03.683Z,6.65
2023-01-23T07:15:02.036Z,6.68
2023-01-23T07:17:08.569Z,6.63
2023-01-23T07:19:07.457Z,6.65
2023-01-23T07:21:09.460Z,6.67
2023-01-23T07:23:07.692Z,6.64
2023-01-23T07:25:08.575Z,6.53
2023-01-23T07:27:06.768Z,6.49
2023-01-23T07:29:05.062Z,6.46
2023-01-23T07:31:03.420Z,6.44
2023-01-23T07:33:04.440Z,6.43
2023-01-23T07:35:02.857Z,6.43
2023-01-23T07:37:01.462Z,6.38
2023-01-23T07:39:00.107Z,6.36
2023-01-23T07:41:00.226Z,6.25
2023-01-23T07:42:58.541Z,6.25
2023-01-23T07:44:56.829Z,6.21
2023-01-23T07:46:55.285Z,6.15
2023-01-23T07:48:56.439Z,6.12
2023-01-23T07:50:55.013Z,6.09
2023-01-23T07:52:54.986Z,6.05
2023-01-23T07:54:54.383Z,6.03
2023-01-23T07:56:52.772Z,6.07
2023-01-23T07:58:51.928Z,6.04
2023-01-23T08:00:50.327Z,6.04
2023-01-23T08:02:48.760Z,6.18
2023-01-23T08:04:48.327Z,6.23
2023-01-23T08:06:46.817Z,6.18
2023-01-23T08:08:45.140Z,6.16
2023-01-23T08:10:43.869Z,6.16
2023-01-23T08:12:42.026Z,6.18
2023-01-23T08:14:43.686Z,6.18
2023-01-23T08:16:42.106Z,6.25
2023-01-23T08:18:40.254Z,6.25
2023-01-23T08:20:39.911Z,6.22
2023-01-23T08:22:40.763Z,6.25
2023-01-23T08:24:39.162Z,6.29
2023-01-23T08:26:37.431Z,6.34
2023-01-23T08:28:35.685Z,6.40
2023-01-23T08:30:33.961Z,6.44
2023-01-23T08:32:32.553Z,6.49
2023-01-23T08:34:30.735Z,6.49
2023-01-23T08:36:30.643Z,6.52
2023-01-23T08:38:29.124Z,6.57
2023-01-23T08:40:27.537Z,6.51
2023-01-23T08:42:25.700Z,6.50
2023-01-23T08:44:24.774Z,6.44
2023-01-23T08:46:23.011Z,6.44
2023-01-23T08:48:22.610Z,6.45
2023-01-23T08:50:21.344Z,6.43
2023-01-23T08:52:21.067Z,6.42
2023-01-23T08:54:19.377Z,6.43
2023-01-23T08:56:20.567Z,6.45
2023-01-23T08:58:18.812Z,6.56
2023-01-23T09:00:17.753Z,6.58
2023-01-23T09:02:16.115Z,6.59
2023-01-23T09:04:14.270Z,6.68
2023-01-23T09:06:13.706Z,6.80
2023-01-23T09:08:13.485Z,6.80
2023-01-23T09:10:12.978Z,6.90
2023-01-23T09:12:11.393Z,6.93
2023-01-23T09:14:09.623Z,7.07
2023-01-23T09:16:09.577Z,7.15
2023-01-23T09:18:08.237Z,7.18
2023-01-23T09:20:10.253Z,7.22
2023-01-23T09:22:08.554Z,7.28
2023-01-23T09:24:08.681Z,7.34
2023-01-23T09:26:09.072Z,7.38
2023-01-23T09:28:07.299Z,7.35
2023-01-23T09:30:06.699Z,7.19
2023-01-23T09:32:05.602Z,7.18
2023-01-23T09:34:04.560Z,7.20
2023-01-23T09:36:02.861Z,7.09
2023-01-23T09:38:01.553Z,7.04
2023-01-23T09:40:04.196Z,7.13
2023-01-23T09:42:08.469Z,7.15
2023-01-23T09:44:10.277Z,7.28
2023-01-23T09:46:17.548Z,7.10
2023-01-23T09:48:25.853Z,6.81
2023-01-23T09:50:29.799Z,6.84
2023-01-23T09:52:32.841Z,6.81
2023-01-23T09:54:38.256Z,6.96
2023-01-23T09:56:43.080Z,6.87
2023-01-23T09:58:47.915Z,7.02
2023-01-23T10:00:46.510Z,6.82
2023-01-23T10:02:45.704Z,6.69
2023-01-23T10:04:44.021Z,6.63
2023-01-23T10:07:09.696Z,6.84
2023-01-23T10:09:23.728Z,6.84
2023-01-23T10:11:30.539Z,6.67
2023-01-23T10:13:50.034Z,6.61
2023-01-23T10:16:06.175Z,6.60
2023-01-23T10:18:16.998Z,6.45
2023-01-23T10:20:30.530Z,6.38
2023-01-23T10:22:36.303Z,6.40
2023-01-23T10:24:45.732Z,6.38
2023-01-23T10:26:46.437Z,6.37
2023-01-23T10:28:47.764Z,6.32
2023-01-23T10:30:50.945Z,6.32
2023-01-23T10:32:53.418Z,6.38
2023-01-23T10:34:58.138Z,6.28
2023-01-23T10:37:08.405Z,6.24
2023-01-23T10:39:12.931Z,6.28
2023-01-23T10:41:17.577Z,6.25
2023-01-23T10:43:17.784Z,6.30
2023-01-23T10:45:22.527Z,6.28
2023-01-23T10:47:32.875Z,6.26
2023-01-23T10:49:35.268Z,6.24
2023-01-23T10:51:46.074Z,6.20
2023-01-23T10:53:44.516Z,6.22
2023-01-23T10:55:47.032Z,6.23
2023-01-23T10:57:48.588Z,6.25
2023-01-23T10:59:55.661Z,6.15
2023-01-23T11:02:17.907Z,6.16
2023-01-23T11:04:22.092Z,6.18
2023-01-23T11:06:26.104Z,6.21
2023-01-23T11:08:26.531Z,6.28
2023-01-23T11:10:25.084Z,6.36
2023-01-23T11:12:25.663Z,6.30
2023-01-23T11:14:24.317Z,6.25
2023-01-23T11:16:24.228Z,6.24
2023-01-23T11:18:34.688Z,6.22
2023-01-23T11:20:36.256Z,6.08
2023-01-23T11:22:38.878Z,6.03
2023-01-23T11:24:41.221Z,5.98
2023-01-23T11:26:40.252Z,5.95
2023-01-23T11:28:49.556Z,5.91
2023-01-23T11:30:54.222Z,5.89
2023-01-23T11:33:00.095Z,5.90
2023-01-23T11:35:12.175Z,5.89
2023-01-23T11:37:17.214Z,5.92
2023-01-23T11:39:26.667Z,5.96
2023-01-23T11:41:30.538Z,6.03
2023-01-23T11:43:29.042Z,6.05
2023-01-23T11:45:41.507Z,6.08
2023-01-23T11:48:13.590Z,6.11
2023-01-23T11:50:43.666Z,6.09
2023-01-23T11:52:59.162Z,6.05
2023-01-23T11:55:10.581Z,6.00
2023-01-23T11:57:19.109Z,5.95
2023-01-23T11:59:34.354Z,5.93
2023-01-23T12:01:37.707Z,5.89
2023-01-23T12:04:06.497Z,5.90
2023-01-23T12:06:21.581Z,5.92
2023-01-23T12:08:30.721Z,5.91
2023-01-23T12:10:36.633Z,5.88
2023-01-23T12:13:00.156Z,5.85
2023-01-23T12:15:09.975Z,5.88
2023-01-23T12:17:20.219Z,5.86
2023-01-23T12:19:30.837Z,5.83
2023-01-23T12:21:39.839Z,5.81
2023-01-23T12:24:01.874Z,5.82
2023-01-23T12:26:08.967Z,5.82
2023-01-23T12:28:21.798Z,5.85
2023-01-23T12:30:40.413Z,5.86
2023-01-23T12:32:49.942Z,5.92
2023-01-23T12:35:03.140Z,5.94
2023-01-23T12:37:30.128Z,5.96
2023-01-23T12:39:47.623Z,5.99
2023-01-23T12:41:50.348Z,6.00
2023-01-23T12:43:56.589Z,6.00
2023-01-23T12:46:05.765Z,6.02
2023-01-23T12:48:10.001Z,6.03
2023-01-23T12:50:19.488Z,6.18
2023-01-23T12:52:24.700Z,6.18
2023-01-23T12:54:33.494Z,6.09
2023-01-23T12:56:34.859Z,6.02
2023-01-23T12:58:36.502Z,6.02
2023-01-23T13:00:47.692Z,5.97
2023-01-23T13:02:54.174Z,6.00
2023-01-23T13:05:06.917Z,6.08
2023-01-23T13:07:25.667Z,6.07
2023-01-23T13:09:34.938Z,6.04
2023-01-23T13:11:42.880Z,6.07
2023-01-23T13:13:41.943Z,6.03
2023-01-23T13:15:41.252Z,6.05
2023-01-23T13:17:42.855Z,6.00
2023-01-23T13:20:00.833Z,5.97
2023-01-23T13:22:18.874Z,5.97
2023-01-23T13:25:02.098Z,5.98
2023-01-23T13:27:00.534Z,5.94
2023-01-23T13:29:04.039Z,5.92
2023-01-23T13:31:04.089Z,5.93
2023-01-23T13:33:23.183Z,5.92
2023-01-23T13:35:56.083Z,5.91
2023-01-23T13:37:54.718Z,5.89
2023-01-23T13:40:06.687Z,5.89
2023-01-23T13:42:44.888Z,5.90
2023-01-23T13:45:31.216Z,5.92
2023-01-23T14:22:34.058Z,5.82
2023-01-23T14:24:44.327Z,5.82
2023-01-23T14:26:50.758Z,5.78
2023-01-23T14:28:56.819Z,5.78
2023-01-23T14:30:58.561Z,5.72
2023-01-23T14:32:58.295Z,5.77
2023-01-23T14:34:56.547Z,5.77
2023-01-23T14:37:04.061Z,5.84
2023-01-23T14:39:03.743Z,5.83
2023-01-23T14:41:06.195Z,5.76
2023-01-23T14:43:08.706Z,5.76
2023-01-23T14:45:12.564Z,5.70
2023-01-23T14:47:18.071Z,5.76
2023-01-23T14:49:22.357Z,5.75
2023-01-23T14:51:23.582Z,5.73
2023-01-23T14:53:21.737Z,5.71
2023-01-23T14:55:29.846Z,5.67
2023-01-23T14:57:29.968Z,5.62
2023-01-23T14:59:31.663Z,5.55
2023-01-23T15:01:30.146Z,5.52
2023-01-23T15:03:43.915Z,5.49
2023-01-23T15:05:56.606Z,5.46
2023-01-23T15:07:57.748Z,5.45
2023-01-23T15:09:55.936Z,5.47
2023-01-23T15:11:54.612Z,5.46
2023-01-23T15:13:55.495Z,5.42
2023-01-23T15:15:57.554Z,5.44
2023-01-23T15:17:59.385Z,5.45
2023-01-23T15:20:00.119Z,5.44
2023-01-23T15:22:17.147Z,5.40
2023-01-23T15:24:29.556Z,5.40
2023-01-23T15:26:35.485Z,5.44
2023-01-23T15:28:40.550Z,5.52
2023-01-23T15:30:44.019Z,5.61
2023-01-23T15:32:42.255Z,5.60
2023-01-23T15:34:40.494Z,5.64
2023-01-23T15:36:40.129Z,5.65
2023-01-23T15:38:38.399Z,5.62
2023-01-23T15:40:38.340Z,5.60
2023-01-23T15:42:36.619Z,5.60
2023-01-23T15:44:34.869Z,5.59
2023-01-23T15:46:33.137Z,5.60
2023-01-23T15:48:31.382Z,5.60
2023-01-23T15:50:30.344Z,5.57
2023-01-23T15:52:32.269Z,5.59
2023-01-23T15:54:36.428Z,5.58
2023-01-23T15:56:35.848Z,5.57
2023-01-23T15:58:34.050Z,5.55
2023-01-23T16:00:32.604Z,5.53
2023-01-23T16:02:33.102Z,5.56
2023-01-23T16:04:31.834Z,5.55
2023-01-23T16:06:30.014Z,5.54
2023-01-23T16:08:29.507Z,5.60
2023-01-23T16:10:30.264Z,5.67
2023-01-23T16:12:30.158Z,5.72
2023-01-23T16:14:28.738Z,5.75
2023-01-23T16:16:27.090Z,5.68
2023-01-23T16:18:25.372Z,5.65
2023-01-23T16:20:25.524Z,5.67
2023-01-23T16:22:29.259Z,5.61
2023-01-23T16:24:38.391Z,5.57
2023-01-23T16:26:36.680Z,5.59
2023-01-23T16:28:35.073Z,5.56
2023-01-23T16:30:33.727Z,5.56
2023-01-23T16:32:31.970Z,5.58
2023-01-23T16:34:30.207Z,5.58
2023-01-23T16:36:28.516Z,5.56
2023-01-23T16:38:29.546Z,5.54
2023-01-23T16:40:32.174Z,5.51
2023-01-23T16:42:31.763Z,5.51
2023-01-23T16:44:30.375Z,5.47
2023-01-23T16:46:28.625Z,5.47
2023-01-23T16:48:28.742Z,5.46
2023-01-23T16:50:34.420Z,5.43
2023-01-23T16:52:32.715Z,5.44
2023-01-23T16:54:31.109Z,5.41
2023-01-23T16:56:40.547Z,5.41
2023-01-23T16:58:40.903Z,5.37
2023-01-23T17:00:39.247Z,5.38
2023-01-23T17:02:37.669Z,5.36
2023-01-23T17:04:35.768Z,5.35
2023-01-23T17:06:34.175Z,5.34
2023-01-23T17:08:32.376Z,5.33
2023-01-23T17:10:45.340Z,5.29
2023-01-23T17:12:46.072Z,5.29
2023-01-23T17:14:46.970Z,5.26
2023-01-23T17:16:46.709Z,5.25
2023-01-23T17:18:44.937Z,5.22
2023-01-23T17:20:43.586Z,5.32
2023-01-23T17:22:43.207Z,5.53
2023-01-23T17:24:41.403Z,5.42
2023-01-23T17:26:39.683Z,5.31
2023-01-23T17:28:39.375Z,5.33
2023-01-23T17:30:37.662Z,5.28
2023-01-23T17:32:39.162Z,5.19
2023-01-23T17:34:49.045Z,5.14
2023-01-23T17:36:48.644Z,5.11
2023-01-23T17:38:46.943Z,5.07
2023-01-23T17:40:45.292Z,5.05
2023-01-23T17:42:44.115Z,5.00
2023-01-23T17:44:43.729Z,5.00
2023-01-23T17:46:42.478Z,4.96
2023-01-23T17:48:41.765Z,4.96
2023-01-23T17:50:39.890Z,4.92
2023-01-23T17:52:38.208Z,4.90
2023-01-23T17:54:37.517Z,4.90
2023-01-23T17:56:35.766Z,4.89
2023-01-23T17:58:34.460Z,4.85
2023-01-23T18:00:34.308Z,4.84
2023-01-23T18:02:32.917Z,4.80
2023-01-23T18:04:31.279Z,4.79
2023-01-23T18:06:30.505Z,4.80
2023-01-23T18:08:28.745Z,4.79
2023-01-23T18:10:29.756Z,4.80
2023-01-23T18:12:37.429Z,4.78
2023-01-23T18:14:43.670Z,4.82
2023-01-23T18:16:45.595Z,4.80
2023-01-23T18:18:46.808Z,4.79
2023-01-23T18:20:45.497Z,4.79
2023-01-23T18:22:44.410Z,4.79
2023-01-23T18:24:43.131Z,4.81
2023-01-23T18:26:49.053Z,4.78
2023-01-23T18:28:56.700Z,4.79
2023-01-23T18:31:00.892Z,4.76
2023-01-23T18:33:15.483Z,4.74
2023-01-23T18:35:27.931Z,4.72
2023-01-23T18:37:33.836Z,4.72
2023-01-23T18:39:44.165Z,4.69
2023-01-23T18:41:49.803Z,4.68
2023-01-23T18:43:52.509Z,4.70
2023-01-23T18:45:51.348Z,4.65
2023-01-23T18:47:50.146Z,4.62
2023-01-23T18:49:50.328Z,4.65
2023-01-23T18:51:57.060Z,4.66
2023-01-23T18:54:04.581Z,4.65
2023-01-23T18:56:15.735Z,4.64
2023-01-23T18:58:31.315Z,4.63
2023-01-23T19:00:35.502Z,4.65
2023-01-23T19:02:38.408Z,4.75
2023-01-23T19:04:44.138Z,4.82
2023-01-23T19:06:45.107Z,4.82
2023-01-23T19:08:43.759Z,4.79
2023-01-23T19:10:49.062Z,4.73
2023-01-23T19:12:56.719Z,4.72
2023-01-23T19:15:20.376Z,4.71
2023-01-23T19:17:31.556Z,4.65
2023-01-23T19:19:38.698Z,4.62
2023-01-23T19:21:37.532Z,4.62
2023-01-23T19:23:42.661Z,4.62
2023-01-23T19:25:41.383Z,4.60
2023-01-23T19:27:39.787Z,4.59
2023-01-23T19:29:38.433Z,4.62
2023-01-23T19:31:38.657Z,4.63
2023-01-23T19:33:37.183Z,4.60
2023-01-23T19:35:35.470Z,4.62
2023-01-23T19:37:33.703Z,4.59
2023-01-23T19:39:33.395Z,4.62
2023-01-23T19:41:40.116Z,4.62
2023-01-23T19:43:38.231Z,4.62
2023-01-23T19:45:36.555Z,4.61
2023-01-23T19:47:34.845Z,4.61
2023-01-23T19:49:33.077Z,4.60
2023-01-23T19:51:32.912Z,4.55
2023-01-23T19:53:31.137Z,4.56
2023-01-23T19:55:32.584Z,4.56
2023-01-23T19:57:30.948Z,4.53
2023-01-23T19:59:29.204Z,4.50
2023-01-23T20:01:34.638Z,4.47
2023-01-23T20:03:33.002Z,4.46
2023-01-23T20:05:31.293Z,4.46
2023-01-23T20:07:29.603Z,4.46
2023-01-23T20:09:27.989Z,4.48
2023-01-23T20:11:28.002Z,4.49
2023-01-23T20:13:26.179Z,4.49
2023-01-23T20:15:26.915Z,4.46
2023-01-23T20:17:25.058Z,4.46
2023-01-23T20:19:23.795Z,4.45
2023-01-23T20:21:25.425Z,4.44
2023-01-23T20:23:24.333Z,4.40
2023-01-23T20:25:25.685Z,4.41
2023-01-23T20:27:25.617Z,4.37
2023-01-23T20:29:24.025Z,4.36
2023-01-23T20:31:23.485Z,4.37
2023-01-23T20:33:22.730Z,4.37
2023-01-23T20:35:23.512Z,4.55
2023-01-23T20:37:21.710Z,4.58
2023-01-23T20:39:23.479Z,4.53
2023-01-23T20:41:22.152Z,4.56
2023-01-23T20:43:22.962Z,4.50
2023-01-23T20:45:24.386Z,4.42
2023-01-23T20:47:22.491Z,4.37
2023-01-23T20:49:22.574Z,4.31
2023-01-23T20:51:20.760Z,4.32
2023-01-23T20:53:29.915Z,4.30
2023-01-23T20:55:31.284Z,4.30
2023-01-23T20:57:49.400Z,4.27
2023-01-23T20:59:48.129Z,4.30
2023-01-23T21:02:04.951Z,4.27
2023-01-23T21:04:03.745Z,4.27
2023-01-23T21:06:02.065Z,4.25
2023-01-23T21:08:00.370Z,4.23
2023-01-23T21:09:58.592Z,4.21
2023-01-23T21:11:56.981Z,4.21
2023-01-23T21:13:55.256Z,4.20
2023-01-23T21:16:02.854Z,4.20
2023-01-23T21:18:00.975Z,4.36
2023-01-23T21:19:59.218Z,4.39
2023-01-23T21:21:57.361Z,4.40
2023-01-23T21:23:55.611Z,4.38
2023-01-23T21:25:53.863Z,4.32
2023-01-23T21:27:52.251Z,4.28
2023-01-23T21:29:50.780Z,4.28
2023-01-23T21:31:51.534Z,4.28
2023-01-23T21:33:49.961Z,4.24
2023-01-23T21:35:49.796Z,4.26
2023-01-23T21:37:47.973Z,4.26
2023-01-23T21:39:46.316Z,4.20
2023-01-23T21:41:45.455Z,4.19
2023-01-23T21:43:43.663Z,4.18
2023-01-23T21:45:43.158Z,4.15
2023-01-23T21:47:43.088Z,4.16
2023-01-23T21:49:41.317Z,4.13
2023-01-23T21:51:39.583Z,4.08
2023-01-23T21:53:38.530Z,4.03
2023-01-23T21:55:42.097Z,4.02
2023-01-23T21:57:45.255Z,4.02
2023-01-23T22:00:08.625Z,3.99
2023-01-23T22:02:12.118Z,3.98
2023-01-23T22:04:13.568Z,3.98
2023-01-23T22:06:12.089Z,3.98
2023-01-23T22:08:22.938Z,4.02
2023-01-23T22:10:21.368Z,4.00
2023-01-23T22:12:19.699Z,4.07
2023-01-23T22:14:19.215Z,4.08
2023-01-23T22:16:17.683Z,4.10
2023-01-23T22:18:15.907Z,4.08
2023-01-23T22:20:16.093Z,4.02
2023-01-23T22:22:15.336Z,4.00
2023-01-23T22:24:13.654Z,3.99
2023-01-23T22:26:13.544Z,3.96
2023-01-23T22:28:11.962Z,3.95
2023-01-23T22:30:20.299Z,3.92
2023-01-23T22:32:18.656Z,3.95
2023-01-23T22:34:17.110Z,3.96
2023-01-23T22:36:19.331Z,3.93
2023-01-23T22:38:17.901Z,3.91
2023-01-23T22:40:19.575Z,3.91
2023-01-23T22:42:19.094Z,3.90
2023-01-23T22:44:18.217Z,3.92
2023-01-23T22:46:19.347Z,3.91
2023-01-23T22:48:18.039Z,3.93
2023-01-23T22:50:17.105Z,3.95
2023-01-23T22:52:20.877Z,3.94
2023-01-23T22:54:19.051Z,3.93
2023-01-23T22:56:17.963Z,3.91
2023-01-23T22:58:16.154Z,3.89
2023-01-23T23:00:17.333Z,3.89
2023-01-23T23:02:15.529Z,3.89
2023-01-23T23:04:13.654Z,3.91
2023-01-23T23:06:14.189Z,3.85
2023-01-23T23:08:16.699Z,3.88
2023-01-23T23:10:14.846Z,3.89
2023-01-23T23:12:14.010Z,3.93
2023-01-23T23:14:12.191Z,3.90
2023-01-23T23:16:13.070Z,3.89
2023-01-23T23:18:13.963Z,3.88
2023-01-23T23:20:15.490Z,3.86
2023-01-23T23:22:13.731Z,3.87
2023-01-23T23:24:14.973Z,3.87
2023-01-23T23:26:14.878Z,3.83
2023-01-23T23:28:13.056Z,3.81
2023-01-23T23:30:12.403Z,3.81
2023-01-23T23:32:10.770Z,3.80
2023-01-23T23:34:09.411Z,3.79
2023-01-23T23:36:08.496Z,3.79
2023-01-23T23:38:06.806Z,3.83
2023-01-23T23:40:07.771Z,3.77
2023-01-23T23:42:06.035Z,3.79
2023-01-23T23:44:04.415Z,3.79
2023-01-23T23:46:04.203Z,3.77
2023-01-23T23:48:02.671Z,3.77
2023-01-23T23:50:01.246Z,3.76
2023-01-23T23:51:59.448Z,3.71
2023-01-23T23:53:57.687Z,3.87
2023-01-23T23:55:57.359Z,3.82
2023-01-23T23:57:55.517Z,3.76
2023-01-23T23:59:53.556Z,3.71
